sensor_id;sensor_type;location;lat;lon;timestamp;temperature;humidity
43043;DHT22;28667;50.758;6.096;2022-07-18T00:00:56;17.40;83.30
43043;DHT22;28667;50.758;6.096;2022-07-18T00:03:22;17.40;83.50
43043;DHT22;28667;50.758;6.096;2022-07-18T00:05:48;17.30;84.20
43043;DHT22;28667;50.758;6.096;2022-07-18T00:08:15;17.30;84.30
43043;DHT22;28667;50.758;6.096;2022-07-18T00:10:41;17.20;84.00
43043;DHT22;28667;50.758;6.096;2022-07-18T00:13:07;17.20;83.60
43043;DHT22;28667;50.758;6.096;2022-07-18T00:15:36;17.20;83.40
43043;DHT22;28667;50.758;6.096;2022-07-18T00:18:03;17.10;83.30
43043;DHT22;28667;50.758;6.096;2022-07-18T00:20:29;17.10;83.20
43043;DHT22;28667;50.758;6.096;2022-07-18T00:22:55;17.10;83.40
43043;DHT22;28667;50.758;6.096;2022-07-18T00:25:22;17.00;83.40
43043;DHT22;28667;50.758;6.096;2022-07-18T00:27:48;17.00;83.70
43043;DHT22;28667;50.758;6.096;2022-07-18T00:30:14;17.00;83.80
43043;DHT22;28667;50.758;6.096;2022-07-18T00:32:40;17.00;83.80
43043;DHT22;28667;50.758;6.096;2022-07-18T00:35:07;17.00;84.00
43043;DHT22;28667;50.758;6.096;2022-07-18T00:37:33;16.90;84.20
43043;DHT22;28667;50.758;6.096;2022-07-18T00:39:59;16.90;84.50
43043;DHT22;28667;50.758;6.096;2022-07-18T00:42:26;16.80;84.70
43043;DHT22;28667;50.758;6.096;2022-07-18T00:44:56;16.80;84.80
43043;DHT22;28667;50.758;6.096;2022-07-18T00:47:22;16.80;85.10
43043;DHT22;28667;50.758;6.096;2022-07-18T00:49:48;16.80;85.10
43043;DHT22;28667;50.758;6.096;2022-07-18T00:52:15;16.70;85.50
43043;DHT22;28667;50.758;6.096;2022-07-18T00:54:41;16.70;84.90
43043;DHT22;28667;50.758;6.096;2022-07-18T00:57:07;16.60;85.00
43043;DHT22;28667;50.758;6.096;2022-07-18T00:59:33;16.60;84.80
43043;DHT22;28667;50.758;6.096;2022-07-18T01:02:18;16.60;84.80
43043;DHT22;28667;50.758;6.096;2022-07-18T01:04:44;16.50;84.80
43043;DHT22;28667;50.758;6.096;2022-07-18T01:07:10;16.50;84.90
43043;DHT22;28667;50.758;6.096;2022-07-18T01:09:37;16.50;85.00
43043;DHT22;28667;50.758;6.096;2022-07-18T01:12:05;16.40;85.10
43043;DHT22;28667;50.758;6.096;2022-07-18T01:14:32;16.40;85.20
43043;DHT22;28667;50.758;6.096;2022-07-18T01:16:58;16.40;85.30
43043;DHT22;28667;50.758;6.096;2022-07-18T01:19:24;16.30;85.30
43043;DHT22;28667;50.758;6.096;2022-07-18T01:21:50;16.30;85.30
43043;DHT22;28667;50.758;6.096;2022-07-18T01:24:16;16.30;85.40
43043;DHT22;28667;50.758;6.096;2022-07-18T01:26:42;16.20;85.40
43043;DHT22;28667;50.758;6.096;2022-07-18T01:29:08;16.20;85.70
43043;DHT22;28667;50.758;6.096;2022-07-18T01:31:34;16.20;85.80
43043;DHT22;28667;50.758;6.096;2022-07-18T01:34:01;16.10;86.00
43043;DHT22;28667;50.758;6.096;2022-07-18T01:36:28;16.10;86.50
43043;DHT22;28667;50.758;6.096;2022-07-18T01:38:53;16.10;86.40
43043;DHT22;28667;50.758;6.096;2022-07-18T01:41:19;16.10;86.50
43043;DHT22;28667;50.758;6.096;2022-07-18T01:43:45;16.00;86.40
43043;DHT22;28667;50.758;6.096;2022-07-18T01:46:11;16.00;86.60
43043;DHT22;28667;50.758;6.096;2022-07-18T01:48:38;16.00;86.90
43043;DHT22;28667;50.758;6.096;2022-07-18T01:51:05;15.90;87.10
43043;DHT22;28667;50.758;6.096;2022-07-18T01:53:37;15.90;87.60
43043;DHT22;28667;50.758;6.096;2022-07-18T01:56:04;15.90;87.60
43043;DHT22;28667;50.758;6.096;2022-07-18T01:58:30;15.80;87.60
43043;DHT22;28667;50.758;6.096;2022-07-18T02:00:56;15.80;88.10
43043;DHT22;28667;50.758;6.096;2022-07-18T02:03:22;15.80;88.40
43043;DHT22;28667;50.758;6.096;2022-07-18T02:05:48;15.80;88.50
43043;DHT22;28667;50.758;6.096;2022-07-18T02:08:15;15.70;89.00
43043;DHT22;28667;50.758;6.096;2022-07-18T02:10:41;15.70;89.00
43043;DHT22;28667;50.758;6.096;2022-07-18T02:13:07;15.70;89.00
43043;DHT22;28667;50.758;6.096;2022-07-18T02:15:33;15.70;89.00
43043;DHT22;28667;50.758;6.096;2022-07-18T02:17:59;15.60;88.90
43043;DHT22;28667;50.758;6.096;2022-07-18T02:20:25;15.60;88.70
43043;DHT22;28667;50.758;6.096;2022-07-18T02:22:51;15.60;88.60
43043;DHT22;28667;50.758;6.096;2022-07-18T02:25:17;15.60;88.70
43043;DHT22;28667;50.758;6.096;2022-07-18T02:27:43;15.60;89.10
43043;DHT22;28667;50.758;6.096;2022-07-18T02:30:10;15.50;89.10
43043;DHT22;28667;50.758;6.096;2022-07-18T02:32:36;15.50;89.40
43043;DHT22;28667;50.758;6.096;2022-07-18T02:35:07;15.50;89.50
43043;DHT22;28667;50.758;6.096;2022-07-18T02:37:35;15.50;89.70
43043;DHT22;28667;50.758;6.096;2022-07-18T02:40:09;15.50;90.00
43043;DHT22;28667;50.758;6.096;2022-07-18T02:42:35;15.40;89.90
43043;DHT22;28667;50.758;6.096;2022-07-18T02:45:02;15.40;89.80
43043;DHT22;28667;50.758;6.096;2022-07-18T02:47:29;15.40;89.70
43043;DHT22;28667;50.758;6.096;2022-07-18T02:49:55;15.30;90.00
43043;DHT22;28667;50.758;6.096;2022-07-18T02:52:21;15.30;90.20
43043;DHT22;28667;50.758;6.096;2022-07-18T02:54:47;15.30;90.20
43043;DHT22;28667;50.758;6.096;2022-07-18T02:57:13;15.20;90.30
43043;DHT22;28667;50.758;6.096;2022-07-18T02:59:39;15.30;90.80
43043;DHT22;28667;50.758;6.096;2022-07-18T03:02:06;15.20;90.60
43043;DHT22;28667;50.758;6.096;2022-07-18T03:04:32;15.20;90.70
43043;DHT22;28667;50.758;6.096;2022-07-18T03:06:58;15.20;90.80
43043;DHT22;28667;50.758;6.096;2022-07-18T03:09:25;15.20;90.90
43043;DHT22;28667;50.758;6.096;2022-07-18T03:11:54;15.10;90.80
43043;DHT22;28667;50.758;6.096;2022-07-18T03:14:21;15.10;90.70
43043;DHT22;28667;50.758;6.096;2022-07-18T03:16:47;15.10;90.80
43043;DHT22;28667;50.758;6.096;2022-07-18T03:19:13;15.10;91.00
43043;DHT22;28667;50.758;6.096;2022-07-18T03:21:39;15.00;90.90
43043;DHT22;28667;50.758;6.096;2022-07-18T03:24:06;15.00;90.80
43043;DHT22;28667;50.758;6.096;2022-07-18T03:26:31;15.00;90.90
43043;DHT22;28667;50.758;6.096;2022-07-18T03:28:58;15.00;91.00
43043;DHT22;28667;50.758;6.096;2022-07-18T03:31:24;15.00;91.10
43043;DHT22;28667;50.758;6.096;2022-07-18T03:33:50;15.00;91.00
43043;DHT22;28667;50.758;6.096;2022-07-18T03:36:16;15.00;91.10
43043;DHT22;28667;50.758;6.096;2022-07-18T03:38:42;14.90;91.10
43043;DHT22;28667;50.758;6.096;2022-07-18T03:41:09;14.90;91.00
43043;DHT22;28667;50.758;6.096;2022-07-18T03:43:37;14.90;91.10
43043;DHT22;28667;50.758;6.096;2022-07-18T03:46:03;14.90;91.30
43043;DHT22;28667;50.758;6.096;2022-07-18T03:48:29;14.90;91.50
43043;DHT22;28667;50.758;6.096;2022-07-18T03:50:55;14.90;91.80
43043;DHT22;28667;50.758;6.096;2022-07-18T03:53:21;14.80;91.80
43043;DHT22;28667;50.758;6.096;2022-07-18T03:55:47;14.80;92.10
43043;DHT22;28667;50.758;6.096;2022-07-18T03:58:13;14.80;91.90
43043;DHT22;28667;50.758;6.096;2022-07-18T04:00:39;14.80;91.90
43043;DHT22;28667;50.758;6.096;2022-07-18T04:03:05;14.80;91.70
43043;DHT22;28667;50.758;6.096;2022-07-18T04:05:32;14.80;91.70
43043;DHT22;28667;50.758;6.096;2022-07-18T04:07:58;14.80;91.80
43043;DHT22;28667;50.758;6.096;2022-07-18T04:10:25;14.80;91.70
43043;DHT22;28667;50.758;6.096;2022-07-18T04:12:52;14.80;91.70
43043;DHT22;28667;50.758;6.096;2022-07-18T04:15:20;14.80;91.70
43043;DHT22;28667;50.758;6.096;2022-07-18T04:17:47;14.80;91.70
43043;DHT22;28667;50.758;6.096;2022-07-18T04:20:14;14.80;91.70
43043;DHT22;28667;50.758;6.096;2022-07-18T04:22:52;14.90;91.70
43043;DHT22;28667;50.758;6.096;2022-07-18T04:25:20;14.90;91.70
43043;DHT22;28667;50.758;6.096;2022-07-18T04:27:47;14.90;91.70
43043;DHT22;28667;50.758;6.096;2022-07-18T04:30:14;14.90;91.70
43043;DHT22;28667;50.758;6.096;2022-07-18T04:32:41;15.00;91.80
43043;DHT22;28667;50.758;6.096;2022-07-18T04:35:08;15.00;91.80
43043;DHT22;28667;50.758;6.096;2022-07-18T04:37:34;15.00;91.80
43043;DHT22;28667;50.758;6.096;2022-07-18T04:40:00;15.10;91.80
43043;DHT22;28667;50.758;6.096;2022-07-18T04:42:28;15.10;92.00
43043;DHT22;28667;50.758;6.096;2022-07-18T04:44:57;15.20;92.00
43043;DHT22;28667;50.758;6.096;2022-07-18T04:47:27;15.20;92.20
43043;DHT22;28667;50.758;6.096;2022-07-18T04:49:54;15.20;91.80
43043;DHT22;28667;50.758;6.096;2022-07-18T04:52:21;15.30;91.90
43043;DHT22;28667;50.758;6.096;2022-07-18T04:54:47;15.30;91.80
43043;DHT22;28667;50.758;6.096;2022-07-18T04:57:13;15.40;91.80
43043;DHT22;28667;50.758;6.096;2022-07-18T04:59:46;15.40;91.80
43043;DHT22;28667;50.758;6.096;2022-07-18T05:02:12;15.50;91.80
43043;DHT22;28667;50.758;6.096;2022-07-18T05:04:39;15.50;91.70
43043;DHT22;28667;50.758;6.096;2022-07-18T05:07:06;15.60;91.80
43043;DHT22;28667;50.758;6.096;2022-07-18T05:09:33;15.60;91.90
43043;DHT22;28667;50.758;6.096;2022-07-18T05:11:59;15.70;92.00
43043;DHT22;28667;50.758;6.096;2022-07-18T05:14:25;15.70;92.00
43043;DHT22;28667;50.758;6.096;2022-07-18T05:16:51;15.80;91.90
43043;DHT22;28667;50.758;6.096;2022-07-18T05:19:17;15.80;92.00
43043;DHT22;28667;50.758;6.096;2022-07-18T05:21:43;15.90;91.90
43043;DHT22;28667;50.758;6.096;2022-07-18T05:24:10;16.00;92.40
43043;DHT22;28667;50.758;6.096;2022-07-18T05:26:37;16.00;92.30
43043;DHT22;28667;50.758;6.096;2022-07-18T05:29:03;16.10;92.30
43043;DHT22;28667;50.758;6.096;2022-07-18T05:31:30;16.10;92.30
43043;DHT22;28667;50.758;6.096;2022-07-18T05:33:56;16.20;92.30
43043;DHT22;28667;50.758;6.096;2022-07-18T05:36:22;16.20;92.30
43043;DHT22;28667;50.758;6.096;2022-07-18T05:38:48;16.30;92.30
43043;DHT22;28667;50.758;6.096;2022-07-18T05:41:14;16.30;92.30
43043;DHT22;28667;50.758;6.096;2022-07-18T05:43:40;16.40;92.20
43043;DHT22;28667;50.758;6.096;2022-07-18T05:46:07;16.50;92.60
43043;DHT22;28667;50.758;6.096;2022-07-18T05:48:33;16.50;92.60
43043;DHT22;28667;50.758;6.096;2022-07-18T05:50:59;16.60;92.70
43043;DHT22;28667;50.758;6.096;2022-07-18T05:53:25;16.60;92.90
43043;DHT22;28667;50.758;6.096;2022-07-18T05:55:51;16.70;93.30
43043;DHT22;28667;50.758;6.096;2022-07-18T05:58:17;16.80;93.10
43043;DHT22;28667;50.758;6.096;2022-07-18T06:00:44;16.90;93.00
43043;DHT22;28667;50.758;6.096;2022-07-18T06:03:10;17.00;92.20
43043;DHT22;28667;50.758;6.096;2022-07-18T06:05:37;17.20;92.00
43043;DHT22;28667;50.758;6.096;2022-07-18T06:08:04;17.30;91.10
43043;DHT22;28667;50.758;6.096;2022-07-18T06:10:30;17.50;90.10
43043;DHT22;28667;50.758;6.096;2022-07-18T06:12:56;17.70;88.50
43043;DHT22;28667;50.758;6.096;2022-07-18T06:15:23;17.80;86.60
43043;DHT22;28667;50.758;6.096;2022-07-18T06:17:50;18.10;85.60
43043;DHT22;28667;50.758;6.096;2022-07-18T06:20:16;18.30;82.90
43043;DHT22;28667;50.758;6.096;2022-07-18T06:22:43;18.50;82.70
43043;DHT22;28667;50.758;6.096;2022-07-18T06:25:09;18.70;82.40
43043;DHT22;28667;50.758;6.096;2022-07-18T06:27:35;18.90;81.50
43043;DHT22;28667;50.758;6.096;2022-07-18T06:30:05;19.10;81.40
43043;DHT22;28667;50.758;6.096;2022-07-18T06:32:33;19.20;80.10
43043;DHT22;28667;50.758;6.096;2022-07-18T06:34:59;19.40;79.70
43043;DHT22;28667;50.758;6.096;2022-07-18T06:37:25;19.60;79.90
43043;DHT22;28667;50.758;6.096;2022-07-18T06:39:51;19.70;79.10
43043;DHT22;28667;50.758;6.096;2022-07-18T06:42:17;19.90;78.70
43043;DHT22;28667;50.758;6.096;2022-07-18T06:44:43;20.00;78.50
43043;DHT22;28667;50.758;6.096;2022-07-18T06:47:09;20.20;77.10
43043;DHT22;28667;50.758;6.096;2022-07-18T06:49:35;20.30;76.90
43043;DHT22;28667;50.758;6.096;2022-07-18T06:52:02;20.50;76.80
43043;DHT22;28667;50.758;6.096;2022-07-18T06:54:28;20.50;76.70
43043;DHT22;28667;50.758;6.096;2022-07-18T06:56:55;20.70;76.40
43043;DHT22;28667;50.758;6.096;2022-07-18T06:59:21;20.80;76.40
43043;DHT22;28667;50.758;6.096;2022-07-18T07:01:47;20.90;76.70
43043;DHT22;28667;50.758;6.096;2022-07-18T07:04:14;20.90;76.00
43043;DHT22;28667;50.758;6.096;2022-07-18T07:06:40;21.00;76.30
43043;DHT22;28667;50.758;6.096;2022-07-18T07:09:06;21.10;75.90
43043;DHT22;28667;50.758;6.096;2022-07-18T07:11:32;21.20;75.50
43043;DHT22;28667;50.758;6.096;2022-07-18T07:13:59;21.30;75.60
43043;DHT22;28667;50.758;6.096;2022-07-18T07:16:24;21.40;75.80
43043;DHT22;28667;50.758;6.096;2022-07-18T07:18:51;21.50;76.10
43043;DHT22;28667;50.758;6.096;2022-07-18T07:21:17;21.60;76.20
43043;DHT22;28667;50.758;6.096;2022-07-18T07:23:42;21.60;75.30
43043;DHT22;28667;50.758;6.096;2022-07-18T07:26:09;21.70;75.10
43043;DHT22;28667;50.758;6.096;2022-07-18T07:28:35;21.80;75.30
43043;DHT22;28667;50.758;6.096;2022-07-18T07:31:01;21.90;74.70
43043;DHT22;28667;50.758;6.096;2022-07-18T07:33:27;22.00;74.50
43043;DHT22;28667;50.758;6.096;2022-07-18T07:35:53;22.00;74.00
43043;DHT22;28667;50.758;6.096;2022-07-18T07:38:19;22.10;74.10
43043;DHT22;28667;50.758;6.096;2022-07-18T07:40:46;22.20;74.70
43043;DHT22;28667;50.758;6.096;2022-07-18T07:43:15;22.30;72.20
43043;DHT22;28667;50.758;6.096;2022-07-18T07:45:42;22.40;72.50
43043;DHT22;28667;50.758;6.096;2022-07-18T07:48:08;22.50;72.50
43043;DHT22;28667;50.758;6.096;2022-07-18T07:50:34;22.60;72.10
43043;DHT22;28667;50.758;6.096;2022-07-18T07:53:00;22.70;72.80
43043;DHT22;28667;50.758;6.096;2022-07-18T07:55:27;22.80;72.10
43043;DHT22;28667;50.758;6.096;2022-07-18T07:57:54;22.80;72.10
43043;DHT22;28667;50.758;6.096;2022-07-18T08:00:20;22.90;71.50
43043;DHT22;28667;50.758;6.096;2022-07-18T08:03:06;23.00;68.30
43043;DHT22;28667;50.758;6.096;2022-07-18T08:05:36;23.20;67.50
43043;DHT22;28667;50.758;6.096;2022-07-18T08:08:04;23.40;67.10
43043;DHT22;28667;50.758;6.096;2022-07-18T08:10:30;23.50;66.40
43043;DHT22;28667;50.758;6.096;2022-07-18T08:12:57;23.60;66.40
43043;DHT22;28667;50.758;6.096;2022-07-18T08:15:24;23.80;66.10
43043;DHT22;28667;50.758;6.096;2022-07-18T08:17:51;23.80;66.60
43043;DHT22;28667;50.758;6.096;2022-07-18T08:20:17;23.90;66.80
43043;DHT22;28667;50.758;6.096;2022-07-18T08:25:21;24.10;65.10
43043;DHT22;28667;50.758;6.096;2022-07-18T08:27:48;24.10;64.70
43043;DHT22;28667;50.758;6.096;2022-07-18T08:30:14;24.20;64.70
43043;DHT22;28667;50.758;6.096;2022-07-18T08:32:41;24.20;65.30
43043;DHT22;28667;50.758;6.096;2022-07-18T08:35:07;24.40;64.10
43043;DHT22;28667;50.758;6.096;2022-07-18T08:37:33;24.50;62.90
43043;DHT22;28667;50.758;6.096;2022-07-18T08:39:59;24.70;61.80
43043;DHT22;28667;50.758;6.096;2022-07-18T08:42:27;24.90;60.80
43043;DHT22;28667;50.758;6.096;2022-07-18T08:44:55;25.10;59.60
43043;DHT22;28667;50.758;6.096;2022-07-18T08:47:23;25.40;59.10
43043;DHT22;28667;50.758;6.096;2022-07-18T08:49:52;25.60;58.90
43043;DHT22;28667;50.758;6.096;2022-07-18T08:52:20;25.60;58.20
43043;DHT22;28667;50.758;6.096;2022-07-18T08:54:46;25.70;58.20
43043;DHT22;28667;50.758;6.096;2022-07-18T08:57:15;25.70;58.90
43043;DHT22;28667;50.758;6.096;2022-07-18T08:59:42;25.90;57.00
43043;DHT22;28667;50.758;6.096;2022-07-18T09:02:08;25.90;55.80
43043;DHT22;28667;50.758;6.096;2022-07-18T09:04:42;26.00;57.00
43043;DHT22;28667;50.758;6.096;2022-07-18T09:07:10;26.20;57.10
43043;DHT22;28667;50.758;6.096;2022-07-18T09:09:57;26.20;56.70
43043;DHT22;28667;50.758;6.096;2022-07-18T09:12:27;26.20;56.20
43043;DHT22;28667;50.758;6.096;2022-07-18T09:14:55;26.30;56.00
43043;DHT22;28667;50.758;6.096;2022-07-18T09:17:26;26.30;56.30
43043;DHT22;28667;50.758;6.096;2022-07-18T09:20:12;26.50;55.80
43043;DHT22;28667;50.758;6.096;2022-07-18T09:22:45;26.80;54.80
43043;DHT22;28667;50.758;6.096;2022-07-18T09:25:18;26.90;54.60
43043;DHT22;28667;50.758;6.096;2022-07-18T09:27:52;26.90;54.70
43043;DHT22;28667;50.758;6.096;2022-07-18T09:30:25;27.00;54.50
43043;DHT22;28667;50.758;6.096;2022-07-18T09:35:31;27.10;54.50
43043;DHT22;28667;50.758;6.096;2022-07-18T09:38:07;27.10;54.80
43043;DHT22;28667;50.758;6.096;2022-07-18T09:40:36;27.30;53.50
43043;DHT22;28667;50.758;6.096;2022-07-18T09:43:08;27.30;53.70
43043;DHT22;28667;50.758;6.096;2022-07-18T09:48:15;27.40;52.70
43043;DHT22;28667;50.758;6.096;2022-07-18T09:53:22;27.50;54.30
43043;DHT22;28667;50.758;6.096;2022-07-18T09:55:57;27.60;53.20
43043;DHT22;28667;50.758;6.096;2022-07-18T09:58:30;27.70;52.90
43043;DHT22;28667;50.758;6.096;2022-07-18T10:00:59;27.90;52.00
43043;DHT22;28667;50.758;6.096;2022-07-18T10:03:26;28.00;51.60
43043;DHT22;28667;50.758;6.096;2022-07-18T10:05:54;28.00;51.60
43043;DHT22;28667;50.758;6.096;2022-07-18T10:08:23;28.20;52.20
43043;DHT22;28667;50.758;6.096;2022-07-18T10:10:51;28.10;52.70
43043;DHT22;28667;50.758;6.096;2022-07-18T10:13:20;28.10;51.40
43043;DHT22;28667;50.758;6.096;2022-07-18T10:15:47;28.10;51.30
43043;DHT22;28667;50.758;6.096;2022-07-18T10:18:17;28.10;52.60
43043;DHT22;28667;50.758;6.096;2022-07-18T10:20:59;28.10;52.20
43043;DHT22;28667;50.758;6.096;2022-07-18T10:23:32;28.10;52.50
43043;DHT22;28667;50.758;6.096;2022-07-18T10:28:33;28.40;52.00
43043;DHT22;28667;50.758;6.096;2022-07-18T10:31:16;28.40;51.00
43043;DHT22;28667;50.758;6.096;2022-07-18T10:33:44;28.50;50.80
43043;DHT22;28667;50.758;6.096;2022-07-18T10:36:14;28.50;50.80
43043;DHT22;28667;50.758;6.096;2022-07-18T10:39:10;28.40;51.30
43043;DHT22;28667;50.758;6.096;2022-07-18T10:47:09;28.50;51.30
43043;DHT22;28667;50.758;6.096;2022-07-18T10:57:32;28.90;50.30
43043;DHT22;28667;50.758;6.096;2022-07-18T10:59:59;28.90;50.30
43043;DHT22;28667;50.758;6.096;2022-07-18T11:02:36;29.00;50.50
43043;DHT22;28667;50.758;6.096;2022-07-18T11:05:03;29.10;51.40
43043;DHT22;28667;50.758;6.096;2022-07-18T11:19:19;29.60;50.80
43043;DHT22;28667;50.758;6.096;2022-07-18T11:23:52;29.70;50.70
43043;DHT22;28667;50.758;6.096;2022-07-18T11:26:22;29.70;49.10
43043;DHT22;28667;50.758;6.096;2022-07-18T11:28:49;29.90;48.50
43043;DHT22;28667;50.758;6.096;2022-07-18T11:31:21;30.00;48.40
43043;DHT22;28667;50.758;6.096;2022-07-18T11:33:48;30.00;48.00
43043;DHT22;28667;50.758;6.096;2022-07-18T11:36:15;30.10;48.30
43043;DHT22;28667;50.758;6.096;2022-07-18T11:38:48;30.10;48.20
43043;DHT22;28667;50.758;6.096;2022-07-18T11:41:15;30.00;48.60
43043;DHT22;28667;50.758;6.096;2022-07-18T11:43:43;30.00;49.70
43043;DHT22;28667;50.758;6.096;2022-07-18T11:46:09;30.20;49.20
43043;DHT22;28667;50.758;6.096;2022-07-18T11:48:37;30.30;49.00
43043;DHT22;28667;50.758;6.096;2022-07-18T11:51:13;30.50;49.40
43043;DHT22;28667;50.758;6.096;2022-07-18T11:53:43;30.60;48.60
43043;DHT22;28667;50.758;6.096;2022-07-18T11:56:09;30.60;49.00
43043;DHT22;28667;50.758;6.096;2022-07-18T11:58:36;30.50;49.00
43043;DHT22;28667;50.758;6.096;2022-07-18T12:01:03;30.40;48.40
43043;DHT22;28667;50.758;6.096;2022-07-18T12:03:29;30.50;48.50
43043;DHT22;28667;50.758;6.096;2022-07-18T12:05:56;30.60;48.40
43043;DHT22;28667;50.758;6.096;2022-07-18T12:08:36;30.60;48.40
43043;DHT22;28667;50.758;6.096;2022-07-18T12:11:04;30.60;49.20
43043;DHT22;28667;50.758;6.096;2022-07-18T12:16:05;30.60;48.70
43043;DHT22;28667;50.758;6.096;2022-07-18T12:18:32;30.70;48.30
43043;DHT22;28667;50.758;6.096;2022-07-18T12:21:10;30.80;48.70
43043;DHT22;28667;50.758;6.096;2022-07-18T12:23:36;30.90;48.10
43043;DHT22;28667;50.758;6.096;2022-07-18T12:26:02;31.00;48.60
43043;DHT22;28667;50.758;6.096;2022-07-18T12:28:28;31.00;48.50
43043;DHT22;28667;50.758;6.096;2022-07-18T12:30:54;31.20;49.10
43043;DHT22;28667;50.758;6.096;2022-07-18T12:33:20;31.20;48.00
43043;DHT22;28667;50.758;6.096;2022-07-18T12:35:54;31.00;47.80
43043;DHT22;28667;50.758;6.096;2022-07-18T12:38:21;31.00;47.90
43043;DHT22;28667;50.758;6.096;2022-07-18T12:40:51;31.00;48.00
43043;DHT22;28667;50.758;6.096;2022-07-18T12:43:26;31.00;48.40
43043;DHT22;28667;50.758;6.096;2022-07-18T12:45:56;31.20;47.50
43043;DHT22;28667;50.758;6.096;2022-07-18T12:48:23;31.30;47.40
43043;DHT22;28667;50.758;6.096;2022-07-18T12:50:59;31.40;47.60
43043;DHT22;28667;50.758;6.096;2022-07-18T12:53:27;31.40;46.90
43043;DHT22;28667;50.758;6.096;2022-07-18T12:55:53;31.40;47.20
43043;DHT22;28667;50.758;6.096;2022-07-18T12:58:20;31.30;47.50
43043;DHT22;28667;50.758;6.096;2022-07-18T13:00:46;31.20;47.60
43043;DHT22;28667;50.758;6.096;2022-07-18T13:03:12;31.20;48.30
43043;DHT22;28667;50.758;6.096;2022-07-18T13:05:39;31.10;48.70
43043;DHT22;28667;50.758;6.096;2022-07-18T13:08:06;31.30;46.40
43043;DHT22;28667;50.758;6.096;2022-07-18T13:10:33;31.30;47.20
43043;DHT22;28667;50.758;6.096;2022-07-18T13:13:03;31.30;48.00
43043;DHT22;28667;50.758;6.096;2022-07-18T13:15:30;31.30;47.50
43043;DHT22;28667;50.758;6.096;2022-07-18T13:17:56;31.30;47.50
43043;DHT22;28667;50.758;6.096;2022-07-18T13:20:22;31.30;47.70
43043;DHT22;28667;50.758;6.096;2022-07-18T13:22:48;31.30;46.50
43043;DHT22;28667;50.758;6.096;2022-07-18T13:25:14;31.20;47.40
43043;DHT22;28667;50.758;6.096;2022-07-18T13:27:40;31.50;47.00
43043;DHT22;28667;50.758;6.096;2022-07-18T13:30:07;31.60;46.30
43043;DHT22;28667;50.758;6.096;2022-07-18T13:32:34;31.70;46.30
43043;DHT22;28667;50.758;6.096;2022-07-18T13:35:00;31.60;46.80
43043;DHT22;28667;50.758;6.096;2022-07-18T13:37:27;31.70;46.60
43043;DHT22;28667;50.758;6.096;2022-07-18T13:39:53;31.70;45.90
43043;DHT22;28667;50.758;6.096;2022-07-18T13:42:19;31.80;46.00
43043;DHT22;28667;50.758;6.096;2022-07-18T13:44:45;31.90;46.20
43043;DHT22;28667;50.758;6.096;2022-07-18T13:47:12;31.90;45.80
43043;DHT22;28667;50.758;6.096;2022-07-18T13:49:38;31.80;46.60
43043;DHT22;28667;50.758;6.096;2022-07-18T13:52:04;31.80;46.30
43043;DHT22;28667;50.758;6.096;2022-07-18T13:54:30;31.80;46.60
43043;DHT22;28667;50.758;6.096;2022-07-18T13:56:56;32.10;45.40
43043;DHT22;28667;50.758;6.096;2022-07-18T13:59:22;32.00;45.60
43043;DHT22;28667;50.758;6.096;2022-07-18T14:01:48;32.10;44.40
43043;DHT22;28667;50.758;6.096;2022-07-18T14:04:15;32.10;44.00
43043;DHT22;28667;50.758;6.096;2022-07-18T14:06:42;32.10;44.80
43043;DHT22;28667;50.758;6.096;2022-07-18T14:09:08;32.30;43.90
43043;DHT22;28667;50.758;6.096;2022-07-18T14:11:36;32.30;44.50
43043;DHT22;28667;50.758;6.096;2022-07-18T14:14:02;32.30;44.20
43043;DHT22;28667;50.758;6.096;2022-07-18T14:16:29;32.20;43.80
43043;DHT22;28667;50.758;6.096;2022-07-18T14:18:55;32.10;45.30
43043;DHT22;28667;50.758;6.096;2022-07-18T14:21:21;32.10;45.10
43043;DHT22;28667;50.758;6.096;2022-07-18T14:23:47;32.20;45.20
43043;DHT22;28667;50.758;6.096;2022-07-18T14:26:13;32.10;44.30
43043;DHT22;28667;50.758;6.096;2022-07-18T14:28:39;32.10;44.80
43043;DHT22;28667;50.758;6.096;2022-07-18T14:31:05;32.10;44.20
43043;DHT22;28667;50.758;6.096;2022-07-18T14:33:31;32.20;44.70
43043;DHT22;28667;50.758;6.096;2022-07-18T14:35:57;32.10;45.20
43043;DHT22;28667;50.758;6.096;2022-07-18T14:38:23;32.30;45.00
43043;DHT22;28667;50.758;6.096;2022-07-18T14:40:49;32.30;45.30
43043;DHT22;28667;50.758;6.096;2022-07-18T14:43:15;32.30;43.80
43043;DHT22;28667;50.758;6.096;2022-07-18T14:45:42;32.20;45.10
43043;DHT22;28667;50.758;6.096;2022-07-18T14:48:08;32.20;45.00
43043;DHT22;28667;50.758;6.096;2022-07-18T14:50:34;32.30;44.50
43043;DHT22;28667;50.758;6.096;2022-07-18T14:53:00;32.30;44.90
43043;DHT22;28667;50.758;6.096;2022-07-18T14:55:26;32.40;43.90
43043;DHT22;28667;50.758;6.096;2022-07-18T14:57:52;32.50;44.40
43043;DHT22;28667;50.758;6.096;2022-07-18T15:00:18;32.60;44.10
43043;DHT22;28667;50.758;6.096;2022-07-18T15:02:44;32.60;43.80
43043;DHT22;28667;50.758;6.096;2022-07-18T15:05:11;32.60;45.00
43043;DHT22;28667;50.758;6.096;2022-07-18T15:07:37;32.50;43.80
43043;DHT22;28667;50.758;6.096;2022-07-18T15:10:03;32.60;44.70
43043;DHT22;28667;50.758;6.096;2022-07-18T15:12:30;32.70;43.80
43043;DHT22;28667;50.758;6.096;2022-07-18T15:14:58;32.80;42.80
43043;DHT22;28667;50.758;6.096;2022-07-18T15:17:24;32.80;43.10
43043;DHT22;28667;50.758;6.096;2022-07-18T15:19:50;32.80;42.80
43043;DHT22;28667;50.758;6.096;2022-07-18T15:22:16;32.70;43.10
43043;DHT22;28667;50.758;6.096;2022-07-18T15:24:42;32.70;43.50
43043;DHT22;28667;50.758;6.096;2022-07-18T15:27:08;32.80;43.90
43043;DHT22;28667;50.758;6.096;2022-07-18T15:29:34;32.90;44.00
43043;DHT22;28667;50.758;6.096;2022-07-18T15:32:00;32.90;43.30
43043;DHT22;28667;50.758;6.096;2022-07-18T15:34:28;33.00;42.50
43043;DHT22;28667;50.758;6.096;2022-07-18T15:36:54;33.00;43.30
43043;DHT22;28667;50.758;6.096;2022-07-18T15:39:20;32.90;43.20
43043;DHT22;28667;50.758;6.096;2022-07-18T15:41:45;33.00;43.00
43043;DHT22;28667;50.758;6.096;2022-07-18T15:44:12;33.10;43.20
43043;DHT22;28667;50.758;6.096;2022-07-18T15:46:37;33.10;42.50
43043;DHT22;28667;50.758;6.096;2022-07-18T15:49:03;33.10;42.10
43043;DHT22;28667;50.758;6.096;2022-07-18T15:51:30;33.00;42.30
43043;DHT22;28667;50.758;6.096;2022-07-18T15:53:56;33.00;42.80
43043;DHT22;28667;50.758;6.096;2022-07-18T15:56:21;33.10;42.70
43043;DHT22;28667;50.758;6.096;2022-07-18T15:58:48;33.10;42.70
43043;DHT22;28667;50.758;6.096;2022-07-18T16:01:13;33.00;42.20
43043;DHT22;28667;50.758;6.096;2022-07-18T16:03:39;33.00;42.80
43043;DHT22;28667;50.758;6.096;2022-07-18T16:06:06;33.10;42.50
43043;DHT22;28667;50.758;6.096;2022-07-18T16:08:32;33.20;42.50
43043;DHT22;28667;50.758;6.096;2022-07-18T16:10:58;33.20;42.70
43043;DHT22;28667;50.758;6.096;2022-07-18T16:13:24;33.30;42.90